Shoshone, California Weather observations

Data are for observation ending at time listed.
 Day   Time    Ave.   Ave.  Ave.  Vector   Max.   Stn.    Total    Solar   Ave.  
  of    of     Air    Rel.  Wind   Wind    Wind   Baro.  Precip.   Rad.    Soil  
Year   Day     Temp.  Hum.  Speed  Dir.    Gust   Pres.                    Temp. 
2016   (PST)    F      %     mph   deg.    mph     mb.     in.     W/m2     F   
------------------------------------------------------------------------------
 272   18:00   77.0    43    1.2    58      5.9    968     0.00       8    99999.0
 272   19:00   74.4    48    1.3    82      5.0    968     0.00       0    99999.0
 272   20:00   70.8    52    0.7   321      3.7    968     0.00       0    99999.0
 272   21:00   70.9    52    1.2    43      3.4    968     0.00       0    99999.0
 272   22:00   68.6    57    0.6   353      2.8    969     0.00       0    99999.0
 272   23:00   66.9    60    1.0    26      2.9    969     0.00       0    99999.0
 273    0:00   64.9    62    0.8    69      3.1    969     0.00       0    99999.0
 273    1:00   64.2    64    1.3    52      5.0    969     0.00       0    99999.0
 273    2:00   63.1    67    0.8    23      2.7    970     0.00       0    99999.0
 273    3:00   61.3    68    0.3    68      2.9    970     0.00       0    99999.0
 273    4:00   61.6    71    1.0    86      4.0    970     0.00       0    99999.0
 273    5:00   59.0    72    1.2   318      4.5    970     0.00       0    99999.0
 273    6:00   59.0    73    0.6    64      3.8    971     0.00       5    99999.0
 273    7:00   60.1    71    1.0    25      2.9    972     0.00      89    99999.0
 273    8:00   69.0    54    0.3   300      7.1    972     0.00     297    99999.0
 273    9:00   75.5    38    3.7   283      7.4    973     0.00     514    99999.0
 273   10:00   81.1    32    2.6   292      6.4    972     0.00     668    99999.0
 273   11:00   86.9    25    1.9   245      6.7    972     0.00     772    99999.0
 273   12:00   90.8    21    3.1   162     14.3    971     0.00     814    99999.0
 273   13:00   92.6    18    4.7   162     13.5    970     0.00     790    99999.0
 273   14:00   93.7    16    4.8   181     17.9    970     0.00     698    99999.0
 273   15:00   94.7    15    4.1   148     12.6    969     0.00     555    99999.0
 273   16:00   95.1    14    2.4   167      9.3    968     0.00     369    99999.0
 273   17:00   93.4    15    3.2   168      8.7    968     0.00     166    99999.0

Return to Shoshone, California graphs page.


Western Regional Climate Center,wrcc@dri.edu